createdAt,value
2019-04-25T00:03:32.597Z,28
2019-04-25T00:08:32.596Z,30
2019-04-25T00:13:32.563Z,27
2019-04-25T00:18:32.578Z,25
2019-04-25T00:23:32.571Z,28
2019-04-25T00:28:32.548Z,26
2019-04-25T00:33:34.316Z,22
2019-04-25T00:38:34.340Z,25
2019-04-25T00:43:34.330Z,21
2019-04-25T00:48:34.324Z,25
2019-04-25T00:53:34.314Z,22
2019-04-25T00:58:34.330Z,20
2019-04-25T01:03:34.367Z,22
2019-04-25T03:30:21.012Z,27
2019-04-25T03:35:20.997Z,28
2019-04-25T03:40:20.959Z,23
2019-04-25T03:50:28.900Z,25
2019-04-25T03:55:28.937Z,28
2019-04-25T04:00:28.878Z,26
2019-04-25T04:05:28.859Z,27
2019-04-25T04:10:28.875Z,31
2019-04-25T04:15:28.876Z,28
2019-04-25T04:20:28.893Z,27
2019-04-25T04:25:28.847Z,30
2019-04-25T04:30:28.869Z,30
2019-04-25T04:35:28.848Z,29
2019-04-25T04:40:28.873Z,32
2019-04-25T04:45:34.703Z,30
2019-04-25T04:50:33.848Z,32
2019-04-25T04:55:34.484Z,85
2019-04-25T05:00:34.043Z,34
2019-04-25T05:05:34.578Z,30
2019-04-25T05:10:37.111Z,31
2019-04-25T05:15:33.508Z,27
2019-04-25T05:20:35.767Z,22
2019-04-25T05:25:34.666Z,21
2019-04-25T05:30:33.824Z,51
2019-04-25T05:35:33.426Z,28
2019-04-25T05:40:33.718Z,22
2019-04-25T05:45:34.268Z,20
2019-04-25T05:50:34.057Z,20
2019-04-25T05:55:34.467Z,17
2019-04-25T06:00:34.407Z,20
2019-04-25T06:05:33.813Z,20
2019-04-25T06:10:33.994Z,19
2019-04-25T06:37:06.506Z,20
2019-04-25T06:42:06.493Z,20
2019-04-25T06:47:06.429Z,20
2019-04-25T06:52:06.473Z,20
2019-04-25T07:00:41.083Z,19
2019-04-25T07:05:41.006Z,16
2019-04-25T07:10:27.597Z,16
2019-04-25T07:15:28.008Z,12
2019-04-25T07:20:28.385Z,15
2019-04-25T07:25:28.659Z,13
2019-04-25T07:30:54.463Z,17
2019-04-25T07:35:26.851Z,16
2019-04-25T07:40:27.479Z,18
2019-04-25T07:45:27.216Z,17
2019-04-25T07:50:28.657Z,17
2019-04-25T07:55:27.694Z,16
2019-04-25T08:00:27.477Z,16
2019-04-25T08:05:27.979Z,17
2019-04-25T08:10:28.051Z,19
2019-04-25T08:15:26.313Z,19
2019-04-25T08:20:26.338Z,17
2019-04-25T08:25:26.290Z,18
2019-04-25T08:30:26.299Z,18
2019-04-25T08:35:26.302Z,20
2019-04-25T08:40:26.364Z,19
2019-04-25T08:45:26.289Z,18
2019-04-25T08:50:40.007Z,23
2019-04-25T08:55:26.263Z,24
2019-04-25T09:00:26.275Z,22
2019-04-25T09:05:26.395Z,19
2019-04-25T09:10:26.270Z,22
2019-04-25T09:15:26.284Z,26
2019-04-25T09:20:26.287Z,29
2019-04-25T09:25:26.284Z,30
2019-04-25T09:30:26.245Z,30
2019-04-25T09:35:27.038Z,27
2019-04-25T09:40:27.016Z,28
2019-04-25T09:45:26.981Z,28
2019-04-25T09:50:27.024Z,30
2019-04-25T09:55:26.995Z,30
2019-04-25T10:00:26.977Z,30
2019-04-25T10:05:27.015Z,30
2019-04-25T10:10:26.966Z,32
2019-04-25T10:15:26.948Z,30
2019-04-25T10:20:27.006Z,30
2019-04-25T10:25:26.959Z,30
2019-04-25T10:30:27.014Z,32
2019-04-25T10:35:26.944Z,31
2019-04-25T10:40:26.949Z,30
2019-04-25T10:45:26.938Z,30
2019-04-25T10:50:26.963Z,28
2019-04-25T10:55:26.948Z,30
2019-04-25T11:00:26.945Z,31
2019-04-25T11:05:26.990Z,30
2019-04-25T11:10:26.966Z,28
2019-04-25T11:15:37.246Z,28
2019-04-25T11:20:26.933Z,29
2019-04-25T11:25:26.956Z,28
2019-04-25T11:30:26.943Z,29
2019-04-25T11:40:34.848Z,27
2019-04-25T11:45:34.829Z,29
2019-04-25T11:50:37.233Z,27
2019-04-25T11:55:36.705Z,27
2019-04-25T12:00:35.672Z,28
2019-04-25T12:05:35.685Z,28
2019-04-25T12:10:35.659Z,26
2019-04-25T12:15:35.685Z,27
2019-04-25T12:20:36.523Z,22
2019-04-25T12:25:36.460Z,29
2019-04-25T12:30:40.621Z,24
2019-04-25T12:35:36.565Z,27
2019-04-25T12:40:36.423Z,23
2019-04-25T12:45:36.419Z,28
2019-04-25T12:50:36.406Z,27
2019-04-25T12:55:36.482Z,27
2019-04-25T13:00:58.911Z,30
2019-04-25T13:05:36.451Z,25
2019-04-25T13:10:36.426Z,26
2019-04-25T13:15:36.464Z,23
2019-04-25T13:20:36.412Z,21
2019-04-25T13:25:36.406Z,27
2019-04-25T13:30:36.492Z,21
2019-04-25T13:35:43.500Z,23
2019-04-25T13:40:36.413Z,22
2019-04-25T13:45:36.373Z,20
2019-04-25T13:50:36.397Z,25
2019-04-25T13:55:36.887Z,24
2019-04-25T14:00:36.542Z,23
2019-04-25T14:05:36.380Z,23
2019-04-25T14:10:36.460Z,22
2019-04-25T14:15:37.409Z,21
2019-04-25T14:20:37.648Z,21
2019-04-25T14:25:36.352Z,24
2019-04-25T14:30:36.377Z,19
2019-04-25T14:35:36.338Z,22
2019-04-25T14:40:36.413Z,21
2019-04-25T14:45:45.331Z,23
2019-04-25T14:50:36.355Z,19
2019-04-25T14:55:36.342Z,23
2019-04-25T15:00:36.469Z,26
2019-04-25T15:05:37.468Z,25
2019-04-25T15:10:36.337Z,25
2019-04-25T15:15:36.314Z,26
2019-04-25T15:20:36.349Z,30
2019-04-25T15:25:37.172Z,25
2019-04-25T15:30:36.301Z,23
2019-04-25T15:35:51.312Z,27
2019-04-25T15:40:36.632Z,25
2019-04-25T15:45:36.620Z,20
2019-04-25T15:50:36.273Z,22
2019-04-25T15:55:36.287Z,27
2019-04-25T16:00:36.294Z,24
2019-04-25T16:05:36.314Z,24
2019-04-25T16:10:36.718Z,23
2019-04-25T16:15:36.285Z,21
2019-04-25T16:20:36.297Z,25
2019-04-25T16:25:36.294Z,22
2019-04-25T16:30:36.619Z,21
2019-04-25T16:35:36.267Z,18
2019-04-25T16:40:36.421Z,23
2019-04-25T16:45:36.250Z,24
2019-04-25T16:50:36.630Z,21
2019-04-25T16:55:36.808Z,24
2019-04-25T17:00:36.373Z,22
2019-04-25T17:05:37.194Z,23
2019-04-25T17:10:37.078Z,24
2019-04-25T17:15:36.354Z,21
2019-04-25T17:20:38.013Z,25
2019-04-25T17:25:36.214Z,23
2019-04-25T17:30:36.231Z,24
2019-04-25T17:35:36.849Z,26
2019-04-25T17:40:36.266Z,28
2019-04-25T17:45:37.122Z,28
2019-04-25T17:50:36.223Z,30
2019-04-25T17:55:36.168Z,33
2019-04-25T18:00:36.252Z,31
2019-04-25T18:05:36.558Z,35
2019-04-25T18:10:36.200Z,35
2019-04-25T18:15:37.717Z,33
2019-04-25T18:20:36.826Z,35
2019-04-25T18:25:37.081Z,33
2019-04-25T18:30:37.125Z,37
2019-04-25T18:35:43.964Z,40
2019-04-25T18:40:37.912Z,45
2019-04-25T18:45:38.497Z,45
2019-04-25T18:50:38.641Z,44
2019-04-25T18:55:37.708Z,43
2019-04-25T19:00:37.909Z,44
2019-04-25T19:05:36.851Z,42
2019-04-25T19:10:36.853Z,41
2019-04-25T19:15:36.839Z,38
2019-04-25T19:20:36.826Z,35
2019-04-25T19:25:37.043Z,34
2019-04-25T19:30:36.860Z,36
2019-04-25T19:35:36.837Z,32
2019-04-25T19:40:36.859Z,30
2019-04-25T19:45:41.253Z,30
2019-04-25T19:50:36.801Z,30
2019-04-25T19:55:36.809Z,29
2019-04-25T20:00:37.213Z,30
2019-04-25T20:05:36.802Z,30
2019-04-25T20:10:36.830Z,33
2019-04-25T20:15:36.808Z,28
2019-04-25T20:20:36.808Z,28
2019-04-25T20:25:36.796Z,27
2019-04-25T20:30:36.787Z,25
2019-04-25T20:35:36.911Z,26
2019-04-25T20:37:12.180Z,24
2019-04-25T20:42:12.167Z,22
2019-04-25T20:45:39.569Z,27
2019-04-25T20:50:39.582Z,25
2019-04-25T20:55:39.556Z,23
2019-04-25T21:00:40.542Z,24
2019-04-25T21:05:40.535Z,23
2019-04-25T21:10:39.436Z,27
2019-04-25T21:15:39.417Z,27
2019-04-25T21:20:39.524Z,27
2019-04-25T21:25:39.410Z,24
2019-04-25T21:30:39.490Z,27
2019-04-25T21:35:39.498Z,25
2019-04-25T21:40:40.939Z,27
2019-04-25T21:45:40.028Z,24
2019-04-25T21:50:40.274Z,23
2019-04-25T21:55:40.293Z,25
2019-04-25T22:00:46.347Z,21
2019-04-25T22:05:45.742Z,24
2019-04-25T22:10:45.669Z,22
2019-04-25T22:15:46.348Z,20
2019-04-25T22:20:46.286Z,21
2019-04-25T22:25:47.421Z,21
2019-04-25T22:30:45.690Z,24
2019-04-25T22:35:46.358Z,22
2019-04-25T22:40:46.415Z,21
2019-04-25T22:45:45.646Z,21
2019-04-25T22:50:45.691Z,18
2019-04-25T22:55:45.650Z,18
2019-04-25T23:00:45.723Z,17
2019-04-25T23:05:50.794Z,17
2019-04-25T23:10:45.943Z,21
2019-04-25T23:15:46.412Z,23
2019-04-25T23:20:46.185Z,18
2019-04-25T23:25:45.614Z,21
2019-04-25T23:30:47.633Z,25
2019-04-25T23:35:45.577Z,20
2019-04-25T23:40:46.370Z,22
2019-04-25T23:45:46.254Z,22
2019-04-25T23:50:45.595Z,23
2019-04-25T23:55:45.576Z,21
